Airport View

Enter AWOS ICAO identifier for current METAR.

ex. KFNL

KBEC 192115Z AUTO 15008KT 10SM CLR 35/24 A2993 RMK AO2 T03450237

19 Aug 2019 21:37

Frequency: 119.45

Phone: 316-515-7116

Other Area AWOS: KAAO - KIAB - K3AU - K1K1

TAF KIAB 191000Z 1910/2016 VRB06KT 9999 SKC QNH2992INS BECMG 1920/1921 19010G15KT 9999 SKC QNH2987INS TX37/1921Z TN24/1912Z